Decoded Metar for LFRN (RENNES in FRANCE) (IATA:RNS) | Meteo·Mobile Aviation Weather
aviador You're here:

LFRN Decoded Metar

RENNES in FRANCE
Report Time2019-10-19 22:30:00
UTC Time2019-10-19 22:42:17
Flight Rules lifr LIFR
Wind330° at 03 kt
W.Decomp.*RWY 32: 2.9 kt HW 0.6 kt RCW
RWY 28: 1.8 kt HW 2.4 kt RCW
Visibility9999 m
Phenomena:Mist
Clouds:N/A
Ceiling300 ft
Temp10°C (ISA -5)
Dew Point10°C (100% RH)
AAT9.0°C
QNH1005 hPa
Density Alt-10 ft
Elevation121 ft
Report Wrong Elevation
Raw Report
LFRN 192230Z AUTO 33003KT CAVOK 10/10 Q1005 TEMPO 1500 BR
BKN003=

Extra information for LFRN:More info

Metar Taf Metar & Taf Last 4 Metars F.Rules Stats Wind Profile Meteogram Temp Stats Airport Information Weather charts Add Link Nearby VenuesMetar ALERT Operation Metar Decoded Social comments